createdAt,value
2022-11-16T00:01:45.779Z,80.03
2022-11-16T00:04:13.142Z,80.43
2022-11-16T00:06:40.558Z,80.32
2022-11-16T00:09:22.842Z,80.77
2022-11-16T00:11:55.455Z,80.10
2022-11-16T00:14:24.480Z,79.77
2022-11-16T00:16:51.851Z,80.46
2022-11-16T00:19:18.805Z,80.65
2022-11-16T00:21:46.026Z,80.50
2022-11-16T00:24:14.869Z,81.11
2022-11-16T00:26:42.131Z,80.78
2022-11-16T00:29:17.752Z,80.73
2022-11-16T00:31:45.922Z,80.35
2022-11-16T00:34:13.001Z,81.04
2022-11-16T00:36:39.914Z,80.68
2022-11-16T00:39:06.876Z,81.44
2022-11-16T00:41:33.737Z,80.97
2022-11-16T00:44:00.719Z,81.89
2022-11-16T00:46:27.763Z,81.37
2022-11-16T00:48:54.734Z,81.16
2022-11-16T00:51:21.627Z,80.78
2022-11-16T00:53:48.738Z,80.75
2022-11-16T00:56:15.855Z,79.89
2022-11-16T00:58:44.159Z,79.93
2022-11-16T01:01:11.953Z,79.44
2022-11-16T01:03:39.077Z,79.65
2022-11-16T01:06:08.924Z,79.32
2022-11-16T01:08:38.492Z,79.20
2022-11-16T01:11:32.930Z,80.21
2022-11-16T01:14:03.375Z,78.79
2022-11-16T01:16:30.785Z,80.10
2022-11-16T01:18:57.744Z,80.29
2022-11-16T01:21:25.713Z,79.56
2022-11-16T01:23:52.948Z,78.93
2022-11-16T01:26:20.112Z,79.00
2022-11-16T01:28:47.402Z,78.50
2022-11-16T01:31:14.368Z,78.89
2022-11-16T01:33:42.259Z,79.08
2022-11-16T01:36:17.544Z,78.43
2022-11-16T01:38:47.146Z,78.98
2022-11-16T01:41:23.584Z,80.12
2022-11-16T01:44:26.598Z,80.33
2022-11-16T01:46:57.153Z,80.30
2022-11-16T01:49:27.902Z,80.11
2022-11-16T01:52:01.487Z,79.19
2022-11-16T01:54:33.016Z,79.34
2022-11-16T01:57:07.304Z,79.77
2022-11-16T01:59:41.646Z,81.81
2022-11-16T02:02:15.249Z,80.93
2022-11-16T02:04:43.783Z,80.81
2022-11-16T02:07:21.000Z,80.68
2022-11-16T02:10:12.767Z,80.73
2022-11-16T02:13:00.377Z,80.57
2022-11-16T02:15:45.095Z,81.12
2022-11-16T02:18:42.855Z,80.42
2022-11-16T02:21:35.255Z,79.60
2022-11-16T02:24:17.281Z,79.48
2022-11-16T02:27:21.953Z,80.05
2022-11-16T02:29:55.921Z,79.97
2022-11-16T02:32:52.533Z,80.36
2022-11-16T02:35:29.059Z,81.20
2022-11-16T02:38:14.331Z,79.53
2022-11-16T02:41:01.891Z,81.74
2022-11-16T02:43:44.927Z,80.18
2022-11-16T02:46:27.137Z,80.24
2022-11-16T02:48:57.930Z,79.77
2022-11-16T02:51:28.514Z,80.02
2022-11-16T02:54:12.833Z,82.49
2022-11-16T02:57:15.841Z,82.29
2022-11-16T02:59:46.880Z,83.92
2022-11-16T03:02:31.640Z,84.15
2022-11-16T03:05:13.476Z,83.09
2022-11-16T03:08:00.421Z,83.20
2022-11-16T03:10:49.137Z,81.33
2022-11-16T03:13:17.648Z,80.81
2022-11-16T03:15:45.245Z,80.39
2022-11-16T03:18:16.490Z,81.42
2022-11-16T03:20:44.472Z,82.92
2022-11-16T03:23:14.007Z,83.33
2022-11-16T03:25:51.334Z,82.77
2022-11-16T03:28:34.277Z,82.83
2022-11-16T03:31:07.708Z,83.75
2022-11-16T03:33:48.014Z,82.11
2022-11-16T03:36:30.955Z,81.16
2022-11-16T03:39:07.283Z,82.01
2022-11-16T03:41:39.368Z,82.24
2022-11-16T03:44:10.715Z,82.21
2022-11-16T03:46:40.292Z,81.85
2022-11-16T03:49:08.969Z,83.83
2022-11-16T03:51:37.704Z,82.83
2022-11-16T03:54:05.861Z,83.29
2022-11-16T03:56:34.288Z,82.59
2022-11-16T03:59:02.642Z,82.13
2022-11-16T04:01:31.050Z,83.32
2022-11-16T04:03:58.621Z,85.36
2022-11-16T04:06:44.284Z,85.23
2022-11-16T04:09:29.758Z,86.08
2022-11-16T04:12:14.959Z,86.08
2022-11-16T04:15:01.380Z,84.34
2022-11-16T04:17:48.847Z,84.66
2022-11-16T04:20:34.913Z,84.20
2022-11-16T04:23:25.501Z,85.82
2022-11-16T04:25:53.176Z,86.12
2022-11-16T04:28:24.283Z,86.38
2022-11-16T04:31:17.392Z,86.61
2022-11-16T04:34:36.097Z,86.02
2022-11-16T04:37:23.096Z,85.67
2022-11-16T04:39:50.144Z,85.15
2022-11-16T04:42:20.058Z,85.05
2022-11-16T04:45:08.716Z,84.33
2022-11-16T04:47:44.254Z,84.75
2022-11-16T04:50:12.626Z,85.51
2022-11-16T04:52:41.022Z,85.31
2022-11-16T04:55:11.633Z,85.34
2022-11-16T04:57:38.868Z,85.69
2022-11-16T05:00:07.542Z,85.08
2022-11-16T05:02:36.389Z,84.24
2022-11-16T05:05:03.440Z,84.06
2022-11-16T05:07:30.616Z,83.92
2022-11-16T05:10:07.166Z,83.93
2022-11-16T05:12:35.081Z,83.98
2022-11-16T05:15:06.344Z,83.31
2022-11-16T05:17:34.510Z,84.26
2022-11-16T05:20:22.325Z,83.06
2022-11-16T05:22:58.712Z,83.68
2022-11-16T05:25:36.111Z,84.28
2022-11-16T05:28:06.398Z,84.27
2022-11-16T05:30:37.782Z,82.34
2022-11-16T05:33:04.981Z,83.39
2022-11-16T05:35:35.958Z,82.68
2022-11-16T05:38:03.005Z,84.30
2022-11-16T05:40:33.468Z,84.83
2022-11-16T05:43:01.367Z,84.88
2022-11-16T05:45:31.986Z,84.59
2022-11-16T05:48:00.456Z,84.21
2022-11-16T05:50:27.622Z,84.79
2022-11-16T05:53:06.577Z,83.41
2022-11-16T05:55:36.044Z,84.60
2022-11-16T05:58:03.052Z,83.29
2022-11-16T06:00:30.131Z,84.24
2022-11-16T06:02:58.942Z,84.10
2022-11-16T06:05:29.665Z,83.64
2022-11-16T06:07:58.213Z,83.44
2022-11-16T06:10:25.314Z,83.01
2022-11-16T06:12:53.494Z,82.36
2022-11-16T06:15:20.349Z,82.06
2022-11-16T06:17:47.808Z,81.46
2022-11-16T06:20:16.031Z,81.46
2022-11-16T06:22:44.158Z,79.89
2022-11-16T06:25:11.811Z,79.43
2022-11-16T06:27:42.359Z,79.60
2022-11-16T06:30:11.401Z,79.53
2022-11-16T06:32:40.193Z,77.17
2022-11-16T06:35:08.369Z,76.96
2022-11-16T06:37:36.717Z,75.66
2022-11-16T06:40:03.999Z,76.00
2022-11-16T06:42:35.116Z,75.48
2022-11-16T06:45:02.457Z,75.53
2022-11-16T06:47:36.132Z,75.28
2022-11-16T06:50:05.065Z,75.74
2022-11-16T06:52:33.708Z,75.41
2022-11-16T06:55:00.573Z,74.35
2022-11-16T06:57:31.416Z,71.85
2022-11-16T06:59:58.463Z,69.62
2022-11-16T07:02:25.431Z,70.60
2022-11-16T07:04:53.800Z,68.17
2022-11-16T07:07:20.849Z,69.49
2022-11-16T07:09:48.066Z,69.14
2022-11-16T07:12:15.754Z,70.09
2022-11-16T07:14:45.483Z,69.20
2022-11-16T07:17:13.464Z,67.97
2022-11-16T07:19:40.436Z,68.42
2022-11-16T07:22:07.972Z,67.12
2022-11-16T07:24:34.984Z,64.46
2022-11-16T07:27:02.696Z,65.35
2022-11-16T07:29:35.717Z,64.48
2022-11-16T07:32:22.879Z,66.40
2022-11-16T07:35:12.530Z,65.84
2022-11-16T07:37:40.147Z,65.96
2022-11-16T07:40:09.005Z,67.17
2022-11-16T07:42:37.454Z,67.07
2022-11-16T07:45:27.426Z,67.57
2022-11-16T07:47:58.576Z,67.08
2022-11-16T07:50:44.256Z,68.20
2022-11-16T07:53:11.443Z,67.43
2022-11-16T07:55:39.419Z,67.18
2022-11-16T07:58:06.509Z,67.83
2022-11-16T08:00:33.599Z,69.87
2022-11-16T08:03:09.321Z,69.78
2022-11-16T08:05:36.910Z,68.89
2022-11-16T08:08:04.234Z,68.19
2022-11-16T08:10:34.435Z,67.76
2022-11-16T08:13:01.390Z,67.42
2022-11-16T08:15:28.721Z,67.15
2022-11-16T08:17:59.511Z,67.77
2022-11-16T08:20:28.843Z,68.50
2022-11-16T08:22:59.705Z,68.12
2022-11-16T08:25:27.160Z,68.86
2022-11-16T08:27:54.180Z,68.49
2022-11-16T08:30:21.261Z,68.77
2022-11-16T08:32:48.592Z,68.46
2022-11-16T08:35:16.716Z,68.50
2022-11-16T08:37:45.262Z,69.06
2022-11-16T08:40:12.470Z,69.13
2022-11-16T08:42:43.661Z,67.74
2022-11-16T08:45:11.479Z,67.17
2022-11-16T08:47:38.382Z,64.42
2022-11-16T08:50:07.467Z,64.59
2022-11-16T08:52:34.466Z,64.04
2022-11-16T08:55:02.704Z,64.17
2022-11-16T08:57:30.222Z,65.87
2022-11-16T08:59:59.881Z,62.36
2022-11-16T09:02:26.818Z,61.51
2022-11-16T09:04:53.760Z,61.64
2022-11-16T09:07:21.661Z,59.54
2022-11-16T09:09:48.909Z,60.18
2022-11-16T09:12:16.090Z,57.50
2022-11-16T09:14:42.999Z,55.56
2022-11-16T09:17:09.949Z,54.64
2022-11-16T09:19:36.831Z,54.00
2022-11-16T09:22:04.204Z,55.10
2022-11-16T09:24:31.546Z,54.58
2022-11-16T09:27:01.647Z,54.76
2022-11-16T09:29:28.813Z,53.37
2022-11-16T09:31:56.304Z,53.65
2022-11-16T09:34:23.154Z,53.35
2022-11-16T09:36:50.075Z,54.49
2022-11-16T09:42:07.374Z,53.67
2022-11-16T10:18:08.549Z,55.99
2022-11-16T10:21:00.227Z,55.76
2022-11-16T10:23:44.016Z,55.67
2022-11-16T10:26:17.034Z,54.97
2022-11-16T10:28:57.707Z,54.46
2022-11-16T10:31:33.429Z,54.02
2022-11-16T10:34:03.385Z,52.98
2022-11-16T10:36:32.643Z,53.96
2022-11-16T10:39:01.149Z,51.59
2022-11-16T10:41:50.711Z,52.05
2022-11-16T10:44:25.890Z,51.31
2022-11-16T10:47:01.772Z,50.99
2022-11-16T10:49:43.950Z,50.52
2022-11-16T10:52:10.839Z,51.06
2022-11-16T10:54:42.852Z,53.65
2022-11-16T10:57:14.246Z,52.80
2022-11-16T10:59:44.059Z,51.57
2022-11-16T11:02:31.361Z,51.74
2022-11-16T11:05:14.463Z,52.44
2022-11-16T11:07:45.940Z,51.74
2022-11-16T11:10:29.884Z,54.03
2022-11-16T11:13:08.124Z,55.74
2022-11-16T11:15:35.153Z,54.80
2022-11-16T11:18:26.837Z,56.37
2022-11-16T11:21:16.925Z,57.23
2022-11-16T11:23:47.775Z,55.12
2022-11-16T11:26:37.370Z,56.12
2022-11-16T11:29:20.150Z,59.13
2022-11-16T11:31:54.096Z,58.58
2022-11-16T11:34:24.895Z,56.00
2022-11-16T11:36:56.704Z,56.53
2022-11-16T11:42:26.534Z,57.51
2022-11-16T11:45:15.374Z,58.08
2022-11-16T11:47:58.595Z,59.07
2022-11-16T11:50:33.815Z,58.93
2022-11-16T11:53:42.471Z,59.58
2022-11-16T11:56:12.502Z,58.98
2022-11-16T11:58:41.118Z,58.49
2022-11-16T12:01:33.664Z,60.32
2022-11-16T12:04:25.312Z,58.97
2022-11-16T12:07:18.474Z,59.62
2022-11-16T12:10:10.901Z,58.32
2022-11-16T12:12:47.598Z,58.74
2022-11-16T12:15:44.961Z,58.04
2022-11-16T12:18:17.510Z,57.74
2022-11-16T12:21:11.799Z,57.37
2022-11-16T12:23:47.023Z,58.47
2022-11-16T12:26:53.881Z,59.15
2022-11-16T12:29:45.240Z,59.51
2022-11-16T12:32:25.592Z,59.85
2022-11-16T12:35:10.892Z,59.15
2022-11-16T12:37:49.547Z,59.61
2022-11-16T12:40:43.731Z,59.37
2022-11-16T12:43:19.666Z,59.58
2022-11-16T12:45:54.017Z,60.28
2022-11-16T12:48:36.180Z,60.72
2022-11-16T12:51:32.003Z,60.33
2022-11-16T12:54:13.877Z,60.96
2022-11-16T12:56:54.345Z,61.08
2022-11-16T12:59:34.525Z,61.36
2022-11-16T13:02:08.589Z,61.79
2022-11-16T13:04:51.811Z,61.18
2022-11-16T13:07:25.158Z,61.03
2022-11-16T13:10:03.381Z,61.33
2022-11-16T13:12:32.116Z,61.43
2022-11-16T13:15:02.329Z,61.67
2022-11-16T13:17:33.621Z,61.58
2022-11-16T13:20:33.551Z,61.28
2022-11-16T13:23:14.818Z,61.67
2022-11-16T13:26:10.500Z,62.09
2022-11-16T13:28:56.394Z,61.98
2022-11-16T13:31:56.421Z,61.48
2022-11-16T13:34:31.392Z,61.19
2022-11-16T13:36:58.533Z,61.40
2022-11-16T13:39:57.711Z,61.19
2022-11-16T13:42:25.611Z,61.58
2022-11-16T13:44:54.083Z,61.57
2022-11-16T13:47:32.844Z,61.29
2022-11-16T13:50:02.527Z,61.83
2022-11-16T13:53:40.848Z,61.44
2022-11-16T13:55:38.725Z,61.89
2022-11-16T13:58:07.618Z,61.79
2022-11-16T14:00:40.436Z,62.18
2022-11-16T14:03:15.938Z,62.19
2022-11-16T14:05:47.866Z,62.51
2022-11-16T14:08:20.618Z,62.14
2022-11-16T14:10:53.006Z,61.75
2022-11-16T14:13:40.546Z,61.95
2022-11-16T14:16:22.841Z,61.70
2022-11-16T14:18:52.048Z,61.79
2022-11-16T14:21:57.416Z,61.86
2022-11-16T14:24:56.583Z,61.98
2022-11-16T14:27:39.789Z,62.71
2022-11-16T14:30:25.167Z,64.54
2022-11-16T14:32:54.736Z,64.80
2022-11-16T14:35:27.642Z,65.29
2022-11-16T14:38:05.013Z,64.62
2022-11-16T14:40:41.938Z,63.75
2022-11-16T14:43:18.354Z,65.10
2022-11-16T14:45:52.337Z,65.88
2022-11-16T14:48:21.458Z,66.32
2022-11-16T14:51:11.154Z,66.24
2022-11-16T14:53:42.494Z,66.64
2022-11-16T14:56:14.970Z,66.80
2022-11-16T14:59:16.499Z,67.67
2022-11-16T15:01:43.455Z,67.76
2022-11-16T15:04:12.256Z,68.47
2022-11-16T15:07:01.704Z,68.71
2022-11-16T15:09:33.226Z,68.75
2022-11-16T15:12:27.029Z,68.75
2022-11-16T15:14:56.362Z,69.18
2022-11-16T15:17:31.763Z,69.39
2022-11-16T15:20:20.644Z,70.52
2022-11-16T15:22:51.893Z,71.00
2022-11-16T15:25:32.291Z,70.37
2022-11-16T15:28:04.555Z,70.12
2022-11-16T15:30:34.508Z,70.76
2022-11-16T15:33:04.488Z,70.48
2022-11-16T15:35:34.661Z,70.78
2022-11-16T15:38:32.995Z,71.57
2022-11-16T15:41:04.822Z,71.26
2022-11-16T15:43:44.774Z,71.42
2022-11-16T15:46:17.958Z,71.22
2022-11-16T15:48:46.044Z,71.09
2022-11-16T15:51:20.176Z,71.07
2022-11-16T15:53:49.308Z,70.96
2022-11-16T15:56:16.117Z,70.86
2022-11-16T15:58:43.727Z,70.70
2022-11-16T16:01:12.642Z,70.82
2022-11-16T16:03:50.381Z,71.37
2022-11-16T16:06:46.039Z,71.32
2022-11-16T16:09:27.866Z,70.71
2022-11-16T16:12:10.968Z,71.38
2022-11-16T16:14:38.316Z,70.96
2022-11-16T16:17:05.263Z,70.83
2022-11-16T16:19:45.351Z,70.61
2022-11-16T16:22:28.385Z,70.88
2022-11-16T16:24:55.665Z,70.07
2022-11-16T16:27:24.976Z,69.92
2022-11-16T16:29:53.892Z,69.26
2022-11-16T16:32:28.059Z,69.44
2022-11-16T16:34:57.175Z,69.38
2022-11-16T16:37:26.536Z,68.83
2022-11-16T16:39:53.446Z,68.80
2022-11-16T16:42:20.376Z,69.14
2022-11-16T16:44:48.071Z,68.66
2022-11-16T16:47:16.723Z,68.95
2022-11-16T16:49:43.766Z,69.11
2022-11-16T16:52:13.904Z,68.83
2022-11-16T16:54:41.217Z,68.29
2022-11-16T16:57:13.944Z,67.75
2022-11-16T16:59:40.857Z,67.67
2022-11-16T17:02:11.779Z,67.12
2022-11-16T17:04:38.759Z,67.60
2022-11-16T17:07:06.059Z,66.97
2022-11-16T17:09:32.963Z,67.54
2022-11-16T17:11:59.875Z,66.77
2022-11-16T17:14:26.816Z,66.91
2022-11-16T17:16:53.826Z,66.90
2022-11-16T17:19:23.220Z,67.10
2022-11-16T17:21:51.683Z,66.31
2022-11-16T17:24:18.655Z,66.83
2022-11-16T17:26:48.492Z,66.59
2022-11-16T17:29:15.403Z,66.54
2022-11-16T17:31:44.225Z,67.17
2022-11-16T17:34:13.829Z,68.49
2022-11-16T17:36:42.228Z,67.90
2022-11-16T17:39:09.534Z,67.46
2022-11-16T17:41:37.237Z,67.75
2022-11-16T17:44:04.807Z,68.19
2022-11-16T17:46:31.635Z,67.79
2022-11-16T17:48:58.706Z,67.96
2022-11-16T17:51:26.122Z,68.58
2022-11-16T17:53:53.074Z,68.70
2022-11-16T17:56:22.306Z,69.09
2022-11-16T17:58:52.670Z,69.20
2022-11-16T18:01:19.612Z,68.46
2022-11-16T18:03:46.629Z,68.44
2022-11-16T18:06:21.829Z,69.08
2022-11-16T18:08:49.303Z,68.25
2022-11-16T18:11:24.705Z,68.98
2022-11-16T18:14:00.683Z,68.80
2022-11-16T18:16:32.705Z,69.31
2022-11-16T18:19:02.197Z,69.85
2022-11-16T18:21:29.529Z,69.83
2022-11-16T18:23:59.195Z,69.11
2022-11-16T18:26:26.167Z,69.58
2022-11-16T18:28:53.968Z,69.09
2022-11-16T18:31:22.818Z,69.56
2022-11-16T18:33:49.948Z,70.18
2022-11-16T18:36:19.242Z,70.60
2022-11-16T18:38:46.893Z,71.66
2022-11-16T18:41:13.730Z,71.04
2022-11-16T18:43:58.999Z,71.33
2022-11-16T18:46:28.036Z,70.90
2022-11-16T18:48:56.141Z,70.67
2022-11-16T18:51:24.665Z,70.82
2022-11-16T18:53:51.927Z,71.57
2022-11-16T18:56:19.463Z,72.05
2022-11-16T18:58:51.431Z,71.72
2022-11-16T19:01:22.212Z,72.07
2022-11-16T19:03:50.347Z,72.10
2022-11-16T19:06:18.193Z,73.44
2022-11-16T19:08:50.390Z,72.38
2022-11-16T19:11:21.689Z,72.15
2022-11-16T19:13:56.160Z,72.58
2022-11-16T19:16:24.750Z,72.19
2022-11-16T19:18:52.118Z,72.17
2022-11-16T19:21:19.867Z,72.05
2022-11-16T19:23:49.083Z,71.90
2022-11-16T19:26:17.786Z,72.00
2022-11-16T19:28:49.101Z,72.75
2022-11-16T19:31:24.377Z,72.25
2022-11-16T19:34:02.444Z,72.08
2022-11-16T19:36:30.893Z,73.99
2022-11-16T19:38:58.331Z,74.03
2022-11-16T19:41:27.296Z,73.78
2022-11-16T19:43:59.161Z,72.84
2022-11-16T19:46:34.087Z,73.00
2022-11-16T19:49:01.357Z,74.08
2022-11-16T19:51:30.736Z,73.19
2022-11-16T19:54:00.119Z,73.12
2022-11-16T19:56:27.066Z,73.69
2022-11-16T19:58:53.989Z,73.29
2022-11-16T20:01:28.028Z,73.06
2022-11-16T20:03:59.269Z,73.38
2022-11-16T20:06:29.328Z,72.52
2022-11-16T20:09:00.995Z,72.44
2022-11-16T20:11:34.166Z,73.31
2022-11-16T20:14:03.195Z,73.90
2022-11-16T20:16:37.140Z,73.40
2022-11-16T20:19:07.428Z,73.68
2022-11-16T20:21:37.058Z,73.39
2022-11-16T20:24:07.063Z,73.18
2022-11-16T20:26:35.929Z,73.42
2022-11-16T20:29:03.498Z,73.14
2022-11-16T20:31:32.242Z,73.53
2022-11-16T20:34:03.575Z,72.55
2022-11-16T20:36:32.447Z,73.09
2022-11-16T20:39:00.929Z,73.19
2022-11-16T20:41:32.823Z,72.66
2022-11-16T20:44:01.339Z,73.24
2022-11-16T20:46:31.058Z,73.45
2022-11-16T20:49:00.511Z,74.45
2022-11-16T20:51:28.930Z,74.11
2022-11-16T20:53:55.888Z,73.83
2022-11-16T20:56:22.863Z,74.61
2022-11-16T20:58:50.171Z,73.79
2022-11-16T21:01:19.878Z,73.77
2022-11-16T21:03:47.170Z,73.64
2022-11-16T21:06:14.893Z,73.84
2022-11-16T21:08:42.080Z,73.83
2022-11-16T21:11:14.160Z,74.47
2022-11-16T21:13:59.839Z,74.14
2022-11-16T21:16:26.825Z,74.65
2022-11-16T21:18:54.662Z,74.20
2022-11-16T21:21:21.732Z,74.43
2022-11-16T21:23:51.952Z,74.08
2022-11-16T21:26:21.699Z,73.84
2022-11-16T21:28:48.762Z,74.46
2022-11-16T21:31:18.487Z,73.32
2022-11-16T21:33:46.108Z,73.40
2022-11-16T21:36:20.364Z,73.83
2022-11-16T21:38:47.957Z,73.87
2022-11-16T21:41:16.335Z,73.52
2022-11-16T21:43:44.355Z,73.29
2022-11-16T21:46:16.478Z,73.63
2022-11-16T21:48:43.964Z,73.38
2022-11-16T21:51:13.256Z,73.69
2022-11-16T21:53:40.923Z,72.90
2022-11-16T21:56:12.759Z,73.32
2022-11-16T21:58:40.565Z,72.96
2022-11-16T22:01:07.973Z,73.70
2022-11-16T22:03:35.163Z,72.98
2022-11-16T22:06:24.287Z,72.58
2022-11-16T22:08:51.323Z,73.40
2022-11-16T22:11:22.268Z,73.14
2022-11-16T22:13:50.470Z,73.08
2022-11-16T22:16:19.665Z,73.21
2022-11-16T22:18:46.709Z,72.59
2022-11-16T22:21:13.614Z,73.65
2022-11-16T22:23:40.887Z,73.63
2022-11-16T22:26:11.280Z,73.33
2022-11-16T22:28:38.328Z,73.27
2022-11-16T22:31:15.279Z,73.43
2022-11-16T22:33:42.466Z,73.19
2022-11-16T22:36:10.685Z,72.95
2022-11-16T22:38:38.040Z,72.99
2022-11-16T22:41:05.300Z,72.81
2022-11-16T22:43:33.016Z,72.51
2022-11-16T22:46:05.575Z,72.23
2022-11-16T22:48:38.012Z,73.54
2022-11-16T22:51:12.087Z,72.85
2022-11-16T22:53:39.229Z,72.58
2022-11-16T22:56:08.186Z,72.44
2022-11-16T22:58:36.905Z,73.00
2022-11-16T23:01:05.139Z,72.86
2022-11-16T23:03:32.159Z,73.43
2022-11-16T23:05:59.864Z,73.32
2022-11-16T23:08:27.722Z,73.00
2022-11-16T23:11:17.237Z,73.48
2022-11-16T23:14:03.214Z,73.02
2022-11-16T23:16:30.146Z,72.88
2022-11-16T23:18:57.254Z,74.13
2022-11-16T23:21:42.902Z,73.84
2022-11-16T23:24:32.782Z,73.79
2022-11-16T23:27:20.933Z,74.17
2022-11-16T23:29:48.091Z,74.61
2022-11-16T23:32:14.982Z,74.32
2022-11-16T23:34:41.815Z,74.10
2022-11-16T23:37:08.689Z,74.41
2022-11-16T23:39:35.595Z,74.85
2022-11-16T23:42:20.738Z,75.01
2022-11-16T23:44:47.693Z,75.54
2022-11-16T23:47:14.558Z,75.56
2022-11-16T23:49:41.755Z,75.48
2022-11-16T23:52:08.884Z,76.17
2022-11-16T23:54:35.864Z,76.70
2022-11-16T23:57:02.849Z,76.58
2022-11-16T23:59:29.695Z,76.23
